createdAt,value
2023-07-25T00:01:47.852Z,100368.47
2023-07-25T00:04:14.495Z,100371.31
2023-07-25T00:06:41.210Z,100346.22
2023-07-25T00:09:07.864Z,100346.69
2023-07-25T00:11:34.533Z,100349.88
2023-07-25T00:14:01.178Z,100339.97
2023-07-25T00:16:27.950Z,100327.50
2023-07-25T00:18:55.051Z,100327.63
2023-07-25T00:21:21.794Z,100315.13
2023-07-25T00:23:48.478Z,100311.66
2023-07-25T00:26:15.208Z,100299.06
2023-07-25T00:28:41.875Z,100297.22
2023-07-25T00:31:09.033Z,100291.78
2023-07-25T00:33:35.946Z,100293.00
2023-07-25T00:36:02.816Z,100293.38
2023-07-25T00:38:29.464Z,100296.38
2023-07-25T00:40:56.171Z,100293.16
2023-07-25T00:43:22.953Z,100288.94
2023-07-25T00:46:08.392Z,100294.84
2023-07-25T00:48:35.399Z,100283.44
2023-07-25T00:51:02.095Z,100277.47
2023-07-25T00:53:29.072Z,100287.81
2023-07-25T00:55:56.366Z,100293.56
2023-07-25T00:58:23.386Z,100279.38
2023-07-25T01:00:50.485Z,100261.81
2023-07-25T01:03:17.576Z,100241.09
2023-07-25T01:05:48.364Z,100261.06
2023-07-25T01:08:15.172Z,100252.81
2023-07-25T01:10:41.913Z,100264.53
2023-07-25T01:13:08.592Z,100269.84
2023-07-25T01:15:36.848Z,100292.28
2023-07-25T01:18:04.124Z,100303.25
2023-07-25T01:20:31.385Z,100299.69
2023-07-25T01:22:59.574Z,100298.06
2023-07-25T01:25:26.345Z,100299.16
2023-07-25T01:27:53.074Z,100284.84
2023-07-25T01:30:19.936Z,100279.53
2023-07-25T01:32:46.648Z,100254.34
2023-07-25T01:35:13.366Z,100276.06
2023-07-25T01:37:40.164Z,100281.59
2023-07-25T01:40:07.806Z,100283.44
2023-07-25T01:42:34.670Z,100275.31
2023-07-25T01:45:01.334Z,100253.78
2023-07-25T01:47:30.088Z,100246.75
2023-07-25T01:49:56.800Z,100248.47
2023-07-25T01:52:23.670Z,100228.63
2023-07-25T01:54:50.936Z,100211.59
2023-07-25T01:57:17.681Z,100224.28
2023-07-25T01:59:44.397Z,100218.97
2023-07-25T02:02:11.225Z,100204.66
2023-07-25T02:04:37.891Z,100223.75
2023-07-25T02:07:04.836Z,100224.84
2023-07-25T02:09:31.480Z,100218.78
2023-07-25T02:11:59.660Z,100216.09
2023-07-25T02:14:26.299Z,100200.16
2023-07-25T02:16:53.686Z,100173.25
2023-07-25T02:19:20.387Z,100149.06
2023-07-25T02:21:47.171Z,100131.84
2023-07-25T02:24:13.864Z,100129.22
2023-07-25T02:26:40.634Z,100113.19
2023-07-25T02:29:07.384Z,100132.50
2023-07-25T02:31:34.507Z,100122.13
2023-07-25T02:34:02.558Z,100118.38
2023-07-25T02:36:29.375Z,100112.41
2023-07-25T02:38:56.031Z,100105.50
2023-07-25T02:41:24.791Z,100085.97
2023-07-25T02:43:51.461Z,100066.47
2023-07-25T02:46:18.204Z,100052.06
2023-07-25T02:48:44.883Z,100055.84
2023-07-25T02:51:11.821Z,100034.19
2023-07-25T02:53:38.463Z,100022.34
2023-07-25T02:56:05.514Z,100021.38
2023-07-25T02:58:32.321Z,100018.91
2023-07-25T03:01:00.412Z,100030.72
2023-07-25T03:03:27.183Z,100035.50
2023-07-25T03:05:53.989Z,100019.59
2023-07-25T03:08:20.727Z,100001.72
2023-07-25T03:10:47.464Z,100019.91
2023-07-25T03:13:14.249Z,100045.16
2023-07-25T03:15:41.119Z,100045.91
2023-07-25T03:18:08.337Z,100053.06
2023-07-25T03:20:35.145Z,100074.50
2023-07-25T03:23:01.885Z,100081.44
2023-07-25T03:25:28.717Z,100119.69
2023-07-25T03:27:55.411Z,100133.69
2023-07-25T03:30:22.198Z,100130.84
2023-07-25T03:32:48.953Z,100123.47
2023-07-25T03:35:16.518Z,100110.69
2023-07-25T03:37:43.153Z,100105.25
2023-07-25T03:40:10.060Z,100092.69
2023-07-25T03:42:36.837Z,100095.50
2023-07-25T03:45:03.753Z,100105.72
2023-07-25T03:47:30.450Z,100101.69
2023-07-25T03:49:57.252Z,100089.78
2023-07-25T03:52:23.958Z,100065.34
2023-07-25T03:54:50.712Z,100031.41
2023-07-25T03:57:17.448Z,99995.44
2023-07-25T03:59:44.162Z,99978.53
2023-07-25T04:02:10.805Z,99983.97
2023-07-25T04:04:37.797Z,99990.59
2023-07-25T04:07:04.907Z,99992.66
2023-07-25T04:09:31.601Z,100011.94
2023-07-25T04:11:58.246Z,100053.53
2023-07-25T04:14:24.956Z,100061.53
2023-07-25T04:16:51.911Z,100074.00
2023-07-25T04:19:18.624Z,100084.84
2023-07-25T04:21:45.282Z,100096.41
2023-07-25T04:24:12.138Z,100127.63
2023-07-25T04:26:38.830Z,100139.63
2023-07-25T04:29:05.508Z,100150.81
2023-07-25T04:31:32.524Z,100164.91
2023-07-25T04:33:59.648Z,100182.66
2023-07-25T04:36:30.004Z,100184.94
2023-07-25T04:38:57.716Z,100180.06
2023-07-25T04:41:24.717Z,100198.03
2023-07-25T04:43:51.468Z,100226.34
2023-07-25T04:46:18.367Z,100206.28
2023-07-25T04:48:45.102Z,100189.72
2023-07-25T04:51:11.728Z,100160.34
2023-07-25T04:53:38.553Z,100104.63
2023-07-25T04:56:05.678Z,100131.41
2023-07-25T04:58:32.454Z,100096.63
2023-07-25T05:00:59.220Z,100149.28
2023-07-25T05:03:27.246Z,100159.13
2023-07-25T05:05:56.110Z,100164.88
2023-07-25T05:08:22.789Z,100173.09
2023-07-25T05:10:52.002Z,100179.72
2023-07-25T05:13:19.036Z,100194.09
2023-07-25T05:15:45.855Z,100214.69
2023-07-25T05:18:12.705Z,100206.25
2023-07-25T05:20:39.313Z,100214.06
2023-07-25T05:23:07.257Z,100214.50
2023-07-25T05:25:33.913Z,100236.38
2023-07-25T05:28:00.590Z,100226.44
2023-07-25T05:30:27.250Z,100249.44
2023-07-25T05:33:12.449Z,100242.06
2023-07-25T05:35:39.105Z,100221.34
2023-07-25T05:38:09.097Z,100207.81
2023-07-25T05:40:36.482Z,100178.75
2023-07-25T05:43:03.995Z,100108.53
2023-07-25T05:45:30.819Z,100128.69
2023-07-25T05:47:57.531Z,100133.38
2023-07-25T05:50:24.221Z,100181.16
2023-07-25T05:52:50.846Z,100193.28
2023-07-25T05:55:17.742Z,100257.13
2023-07-25T05:57:44.529Z,100258.63
2023-07-25T06:00:11.844Z,100252.06
2023-07-25T06:02:38.523Z,100198.63
2023-07-25T06:05:05.665Z,100118.47
2023-07-25T06:07:32.344Z,100123.16
2023-07-25T06:09:59.062Z,100202.19
2023-07-25T06:12:25.902Z,100175.94
2023-07-25T06:14:52.628Z,100221.03
2023-07-25T06:17:20.685Z,100251.81
2023-07-25T06:19:49.105Z,100271.75
2023-07-25T06:22:16.661Z,100254.63
2023-07-25T06:24:43.507Z,100243.78
2023-07-25T06:27:10.299Z,100252.91
2023-07-25T06:29:37.019Z,100252.91
2023-07-25T06:32:03.909Z,100242.72
2023-07-25T06:34:30.505Z,100210.19
2023-07-25T06:36:57.309Z,100200.56
2023-07-25T06:39:24.016Z,100205.53
2023-07-25T06:41:50.684Z,100187.31
2023-07-25T06:44:20.941Z,100177.97
2023-07-25T06:46:48.072Z,100140.63
2023-07-25T06:49:14.882Z,100130.75
2023-07-25T06:51:41.701Z,100098.38
2023-07-25T06:54:08.491Z,100096.97
2023-07-25T06:56:35.257Z,100158.56
2023-07-25T06:59:02.041Z,100138.09
2023-07-25T07:01:29.577Z,100112.84
2023-07-25T07:03:56.572Z,100098.56
2023-07-25T07:06:23.375Z,100071.72
2023-07-25T07:08:50.054Z,100074.19
2023-07-25T07:11:16.784Z,100104.31
2023-07-25T07:13:43.494Z,100104.22
2023-07-25T07:16:10.825Z,100087.75
2023-07-25T07:18:37.529Z,100064.34
2023-07-25T07:21:04.271Z,100063.16
2023-07-25T07:23:30.988Z,100093.69
2023-07-25T07:25:57.690Z,100125.22
2023-07-25T07:28:24.891Z,100146.69
2023-07-25T07:30:53.126Z,100144.72
2023-07-25T07:33:20.129Z,100158.59
2023-07-25T07:35:46.987Z,100180.50
2023-07-25T07:38:13.909Z,100180.72
2023-07-25T07:40:40.752Z,100173.28
2023-07-25T07:43:07.410Z,100155.09
2023-07-25T07:45:34.463Z,100163.03
2023-07-25T07:48:01.574Z,100183.00
2023-07-25T07:50:30.733Z,100203.16
2023-07-25T07:52:57.957Z,100189.00
2023-07-25T07:55:25.121Z,100165.56
2023-07-25T07:57:51.893Z,100155.38
2023-07-25T08:00:18.798Z,100132.47
2023-07-25T08:02:46.733Z,100129.03
2023-07-25T08:05:14.306Z,100127.50
2023-07-25T08:07:41.856Z,100123.44
2023-07-25T08:10:09.092Z,100135.69
2023-07-25T08:12:36.098Z,100123.75
2023-07-25T08:15:03.089Z,100129.16
2023-07-25T08:17:29.953Z,100127.88
2023-07-25T08:19:56.690Z,100138.53
2023-07-25T08:22:23.421Z,100154.53
2023-07-25T08:24:55.198Z,100197.47
2023-07-25T08:27:22.418Z,100260.06
2023-07-25T08:29:50.056Z,100307.19
2023-07-25T08:32:16.947Z,100288.25
2023-07-25T08:34:43.932Z,100291.22
2023-07-25T08:37:10.977Z,100317.56
2023-07-25T08:39:37.692Z,100329.06
2023-07-25T08:42:07.374Z,100275.00
2023-07-25T08:44:55.740Z,100231.47
2023-07-25T08:47:27.359Z,100213.63
2023-07-25T08:49:57.948Z,100175.44
2023-07-25T08:52:31.849Z,100164.41
2023-07-25T08:54:58.711Z,100162.03
2023-07-25T08:57:27.528Z,100160.78
2023-07-25T08:59:54.883Z,100161.38
2023-07-25T09:02:22.331Z,100160.84
2023-07-25T09:04:49.193Z,100141.38
2023-07-25T09:07:16.048Z,100132.16
2023-07-25T09:09:42.765Z,100138.41
2023-07-25T09:12:10.992Z,100133.44
2023-07-25T09:14:39.527Z,100133.19
2023-07-25T09:17:09.450Z,100105.53
2023-07-25T09:19:36.315Z,100099.09
2023-07-25T09:22:03.297Z,100130.94
2023-07-25T09:24:40.438Z,100113.34
2023-07-25T09:27:16.935Z,100108.13
2023-07-25T09:29:44.264Z,100119.75
2023-07-25T09:32:25.725Z,100121.81
2023-07-25T09:34:57.690Z,100115.16
2023-07-25T09:37:25.130Z,100123.03
2023-07-25T09:39:52.891Z,100115.03
2023-07-25T09:42:29.062Z,100110.63
2023-07-25T09:44:57.708Z,100112.38
2023-07-25T09:47:28.647Z,100103.09
2023-07-25T09:49:57.171Z,100120.72
2023-07-25T09:52:24.646Z,100129.81
2023-07-25T09:54:52.017Z,100131.75
2023-07-25T09:57:19.634Z,100116.75
2023-07-25T09:59:50.708Z,100125.56
2023-07-25T10:02:18.230Z,100118.63
2023-07-25T10:04:47.023Z,100135.00
2023-07-25T10:07:15.708Z,100120.22
2023-07-25T10:09:45.703Z,100123.03
2023-07-25T10:12:12.926Z,100119.22
2023-07-25T10:14:39.762Z,100119.97
2023-07-25T10:17:26.180Z,100105.91
2023-07-25T10:19:56.932Z,100099.22
2023-07-25T10:22:41.132Z,100102.94
2023-07-25T10:25:22.201Z,100109.78
2023-07-25T10:27:54.456Z,100100.22
2023-07-25T10:30:23.932Z,100103.69
2023-07-25T10:32:55.769Z,100112.03
2023-07-25T10:35:50.893Z,100099.72
2023-07-25T10:38:22.130Z,100093.84
2023-07-25T10:40:55.033Z,100086.91
2023-07-25T10:43:26.547Z,100076.19
2023-07-25T10:45:54.734Z,100061.78
2023-07-25T10:48:35.212Z,100069.09
2023-07-25T10:51:06.182Z,100062.44
2023-07-25T10:53:33.050Z,100060.50
2023-07-25T10:56:10.595Z,100054.34
2023-07-25T10:59:05.035Z,100041.72
2023-07-25T11:01:45.237Z,100041.72
2023-07-25T11:04:39.798Z,100038.63
2023-07-25T11:07:12.564Z,100029.00
2023-07-25T11:09:42.598Z,100026.41
2023-07-25T11:12:11.142Z,100028.88
2023-07-25T11:14:45.546Z,100011.13
2023-07-25T11:17:13.449Z,100028.47
2023-07-25T11:19:40.991Z,100023.59
2023-07-25T11:22:12.835Z,100015.78
2023-07-25T11:24:48.450Z,100013.22
2023-07-25T11:27:15.884Z,100011.81
2023-07-25T11:29:42.754Z,100012.81
2023-07-25T11:32:09.845Z,100011.06
2023-07-25T11:34:36.582Z,100010.03
2023-07-25T11:37:10.393Z,100016.34
2023-07-25T11:39:37.232Z,100016.00
2023-07-25T11:42:04.329Z,100007.66
2023-07-25T11:44:32.961Z,100008.13
2023-07-25T11:47:00.912Z,99992.84
2023-07-25T11:49:45.496Z,99992.91
2023-07-25T11:52:14.931Z,99998.44
2023-07-25T11:54:41.975Z,99996.22
2023-07-25T11:57:11.085Z,99987.81
2023-07-25T11:59:41.877Z,99987.09
2023-07-25T12:02:08.881Z,99987.44
2023-07-25T12:04:42.904Z,99979.59
2023-07-25T12:07:10.251Z,99978.28
2023-07-25T12:09:37.336Z,99975.19
2023-07-25T12:12:04.391Z,99968.88
2023-07-25T12:14:31.102Z,99973.88
2023-07-25T12:17:02.848Z,99957.78
2023-07-25T12:19:32.831Z,99949.88
2023-07-25T12:22:07.190Z,99939.06
2023-07-25T12:24:41.888Z,99938.72
2023-07-25T12:27:19.740Z,99936.50
2023-07-25T12:29:46.641Z,99942.31
2023-07-25T12:32:14.601Z,99940.41
2023-07-25T12:34:41.489Z,99937.81
2023-07-25T12:37:08.189Z,99942.44
2023-07-25T12:39:35.020Z,99946.69
2023-07-25T12:42:01.688Z,99939.94
2023-07-25T12:44:28.398Z,99951.16
2023-07-25T12:46:55.095Z,99956.03
2023-07-25T12:49:22.011Z,99952.03
2023-07-25T12:51:48.809Z,99954.94
2023-07-25T12:54:15.562Z,99949.06
2023-07-25T12:56:42.305Z,99953.56
2023-07-25T12:59:09.152Z,99958.47
2023-07-25T13:01:36.252Z,99946.31
2023-07-25T13:04:03.472Z,99956.00
2023-07-25T13:06:30.292Z,99955.50
2023-07-25T13:08:57.133Z,99943.16
2023-07-25T13:11:23.891Z,99947.34
2023-07-25T13:13:50.644Z,99940.53
2023-07-25T13:16:17.617Z,99926.00
2023-07-25T13:18:44.558Z,99925.66
2023-07-25T13:21:11.343Z,99928.91
2023-07-25T13:23:38.064Z,99928.59
2023-07-25T13:26:04.841Z,99926.84
2023-07-25T13:28:31.673Z,99919.63
2023-07-25T13:30:59.128Z,99917.78
2023-07-25T13:33:26.643Z,99913.13
2023-07-25T13:35:53.369Z,99907.63
2023-07-25T13:38:20.200Z,99905.22
2023-07-25T13:40:46.994Z,99905.75
2023-07-25T13:43:14.815Z,99901.28
2023-07-25T13:45:52.126Z,99899.06
2023-07-25T13:48:19.799Z,99912.78
2023-07-25T13:50:53.680Z,99899.09
2023-07-25T13:53:22.324Z,99896.19
2023-07-25T13:55:51.163Z,99894.81
2023-07-25T14:00:48.046Z,99898.03
2023-07-25T14:03:14.909Z,99900.44
2023-07-25T14:05:41.737Z,99892.75
2023-07-25T14:08:09.024Z,99902.50
2023-07-25T14:10:41.113Z,99896.66
2023-07-25T14:13:08.108Z,99907.63
2023-07-25T14:15:35.731Z,99906.28
2023-07-25T14:18:02.902Z,99907.81
2023-07-25T14:20:30.279Z,99909.72
2023-07-25T14:22:57.027Z,99906.63
2023-07-25T14:25:23.740Z,99907.31
2023-07-25T14:27:50.643Z,99895.31
2023-07-25T14:30:17.477Z,99900.47
2023-07-25T14:32:44.515Z,99899.59
2023-07-25T14:35:11.431Z,99902.16
2023-07-25T14:37:53.673Z,99903.19
2023-07-25T14:40:24.251Z,99900.44
2023-07-25T14:42:51.166Z,99895.28
2023-07-25T14:45:18.584Z,99893.75
2023-07-25T14:47:45.916Z,99890.16
2023-07-25T14:50:13.655Z,99885.84
2023-07-25T14:52:40.464Z,99886.91
2023-07-25T14:55:07.846Z,99891.19
2023-07-25T14:57:34.549Z,99880.38
2023-07-25T15:00:01.375Z,99892.22
2023-07-25T15:02:28.312Z,99893.22
2023-07-25T15:04:55.211Z,99885.00
2023-07-25T15:07:21.908Z,99887.72
2023-07-25T15:09:48.733Z,99875.84
2023-07-25T15:12:15.469Z,99885.63
2023-07-25T15:14:42.897Z,99886.69
2023-07-25T15:17:29.885Z,99874.66
2023-07-25T15:19:59.362Z,99879.69
2023-07-25T15:22:26.195Z,99877.97
2023-07-25T15:24:54.284Z,99873.84
2023-07-25T15:27:21.708Z,99874.72
2023-07-25T15:29:49.485Z,99860.47
2023-07-25T15:32:16.882Z,99862.19
2023-07-25T15:34:43.661Z,99854.66
2023-07-25T15:37:10.522Z,99849.00
2023-07-25T15:39:37.373Z,99848.66
2023-07-25T15:42:04.615Z,99851.88
2023-07-25T15:44:31.378Z,99849.63
2023-07-25T15:46:58.852Z,99845.47
2023-07-25T15:49:25.585Z,99842.19
2023-07-25T15:51:52.358Z,99830.34
2023-07-25T15:54:19.084Z,99833.94
2023-07-25T15:56:45.914Z,99832.22
2023-07-25T15:59:13.243Z,99827.75
2023-07-25T16:01:40.037Z,99819.69
2023-07-25T16:04:09.849Z,99809.75
2023-07-25T16:06:36.640Z,99822.97
2023-07-25T16:09:03.725Z,99819.56
2023-07-25T16:11:30.706Z,99820.41
2023-07-25T16:13:57.678Z,99817.47
2023-07-25T16:16:24.598Z,99813.19
2023-07-25T16:18:51.335Z,99818.34
2023-07-25T16:21:18.110Z,99819.22
2023-07-25T16:23:44.848Z,99820.78
2023-07-25T16:26:11.617Z,99822.00
2023-07-25T16:28:38.338Z,99824.78
2023-07-25T16:31:22.737Z,99819.81
2023-07-25T16:33:53.811Z,99823.91
2023-07-25T16:36:20.606Z,99823.56
2023-07-25T16:38:47.379Z,99820.50
2023-07-25T16:41:15.015Z,99823.56
2023-07-25T16:43:41.866Z,99819.47
2023-07-25T16:46:08.588Z,99807.13
2023-07-25T16:48:35.764Z,99803.69
2023-07-25T16:51:02.552Z,99803.19
2023-07-25T16:53:29.480Z,99795.28
2023-07-25T16:55:56.235Z,99793.75
2023-07-25T16:58:23.061Z,99794.78
2023-07-25T17:00:50.436Z,99797.03
2023-07-25T17:03:17.444Z,99798.22
2023-07-25T17:05:44.547Z,99794.78
2023-07-25T17:08:12.397Z,99794.28
2023-07-25T17:10:39.306Z,99789.09
2023-07-25T17:13:06.392Z,99803.00
2023-07-25T17:15:33.754Z,99804.38
2023-07-25T17:18:00.589Z,99809.00
2023-07-25T17:20:27.609Z,99812.94
2023-07-25T17:22:54.462Z,99815.88
2023-07-25T17:25:21.122Z,99814.31
2023-07-25T17:27:47.924Z,99820.16
2023-07-25T17:30:16.318Z,99819.47
2023-07-25T17:32:43.781Z,99815.19
2023-07-25T17:35:13.027Z,99815.50
2023-07-25T17:37:44.467Z,99818.44
2023-07-25T17:40:11.556Z,99818.78
2023-07-25T17:42:38.336Z,99820.81
2023-07-25T17:45:05.416Z,99823.91
2023-07-25T17:47:33.661Z,99828.88
2023-07-25T17:50:00.636Z,99828.34
2023-07-25T17:52:27.497Z,99832.47
2023-07-25T17:54:54.220Z,99840.28
2023-07-25T17:57:20.969Z,99831.53
2023-07-25T17:59:47.618Z,99840.94
2023-07-25T18:02:14.641Z,99837.50
2023-07-25T18:04:41.908Z,99835.97
2023-07-25T18:07:08.780Z,99830.66
2023-07-25T18:09:35.814Z,99835.44
2023-07-25T18:12:03.095Z,99820.19
2023-07-25T18:14:29.863Z,99836.97
2023-07-25T18:16:56.563Z,99836.44
2023-07-25T18:19:23.221Z,99843.13
2023-07-25T18:21:50.982Z,99831.47
2023-07-25T18:24:20.651Z,99837.09
2023-07-25T18:26:47.507Z,99832.81
2023-07-25T18:29:14.143Z,99832.13
2023-07-25T18:31:40.954Z,99847.00
2023-07-25T18:34:07.574Z,99852.81
2023-07-25T18:36:34.258Z,99849.72
2023-07-25T18:39:01.880Z,99845.75
2023-07-25T18:41:28.619Z,99840.75
2023-07-25T18:43:55.272Z,99831.13
2023-07-25T18:46:22.036Z,99838.81
2023-07-25T18:48:49.749Z,99852.69
2023-07-25T18:51:16.459Z,99840.19
2023-07-25T18:53:43.154Z,99842.22
2023-07-25T18:56:09.834Z,99846.16
2023-07-25T18:58:36.548Z,99854.69
2023-07-25T19:01:03.350Z,99851.56
2023-07-25T19:03:30.342Z,99853.63
2023-07-25T19:05:57.250Z,99860.13
2023-07-25T19:08:23.914Z,99874.84
2023-07-25T19:10:50.681Z,99871.41
2023-07-25T19:13:17.365Z,99872.41
2023-07-25T19:15:44.707Z,99883.53
2023-07-25T19:18:11.594Z,99883.69
2023-07-25T19:20:38.318Z,99885.72
2023-07-25T19:23:15.009Z,99882.28
2023-07-25T19:25:46.342Z,99888.09
2023-07-25T19:28:13.047Z,99887.41
2023-07-25T19:30:44.105Z,99895.94
2023-07-25T19:33:11.250Z,99891.91
2023-07-25T19:35:39.570Z,99901.47
2023-07-25T19:38:06.971Z,99900.94
2023-07-25T19:40:34.176Z,99902.41
2023-07-25T19:43:00.924Z,99910.78
2023-07-25T19:45:27.695Z,99911.09
2023-07-25T19:47:54.567Z,99906.09
2023-07-25T19:50:21.226Z,99917.50
2023-07-25T19:52:48.014Z,99920.53
2023-07-25T19:55:14.697Z,99925.63
2023-07-25T19:57:41.427Z,99926.25
2023-07-25T20:00:09.895Z,99927.59
2023-07-25T20:02:36.827Z,99942.28
2023-07-25T20:05:03.865Z,99936.09
2023-07-25T20:07:30.534Z,99939.13
2023-07-25T20:09:57.247Z,99932.06
2023-07-25T20:12:24.015Z,99944.91
2023-07-25T20:14:50.705Z,99940.75
2023-07-25T20:17:17.381Z,99948.25
2023-07-25T20:19:44.035Z,99957.78
2023-07-25T20:22:10.806Z,99951.59
2023-07-25T20:24:37.506Z,99952.91
2023-07-25T20:27:04.346Z,99954.94
2023-07-25T20:29:31.077Z,99960.56
2023-07-25T20:31:57.952Z,99957.28
2023-07-25T20:34:24.649Z,99963.06
2023-07-25T20:36:51.340Z,99961.63
2023-07-25T20:39:18.005Z,99960.22
2023-07-25T20:41:44.705Z,99972.16
2023-07-25T20:44:11.322Z,99966.16
2023-07-25T20:46:38.133Z,99964.56
2023-07-25T20:49:04.833Z,99974.09
2023-07-25T20:51:31.624Z,99965.19
2023-07-25T20:53:58.274Z,99965.47
2023-07-25T20:56:25.051Z,99969.50
2023-07-25T20:58:51.712Z,99975.97
2023-07-25T21:01:18.468Z,99970.66
2023-07-25T21:03:45.135Z,99975.28
2023-07-25T21:06:11.862Z,99983.63
2023-07-25T21:08:38.498Z,99987.50
2023-07-25T21:11:08.855Z,99992.13
2023-07-25T21:13:36.612Z,99986.78
2023-07-25T21:16:03.448Z,99985.22
2023-07-25T21:18:30.313Z,99988.25
2023-07-25T21:20:57.167Z,99989.41
2023-07-25T21:23:25.215Z,99991.44
2023-07-25T21:25:54.671Z,99991.72
2023-07-25T21:28:21.380Z,99984.84
2023-07-25T21:30:48.092Z,99994.50
2023-07-25T21:33:15.945Z,99985.72
2023-07-25T21:35:42.580Z,99984.31
2023-07-25T21:38:09.257Z,99984.59
2023-07-25T21:40:35.991Z,99983.16
2023-07-25T21:43:02.731Z,99985.16
2023-07-25T21:45:29.752Z,99991.03
2023-07-25T21:47:56.431Z,99998.34
2023-07-25T21:50:23.187Z,100006.84
2023-07-25T21:52:49.933Z,100017.91
2023-07-25T21:55:16.593Z,100021.50
2023-07-25T21:57:43.315Z,100019.78
2023-07-25T22:00:11.354Z,100014.31
2023-07-25T22:02:41.713Z,100016.34
2023-07-25T22:05:08.485Z,100008.28
2023-07-25T22:07:35.223Z,100006.72
2023-07-25T22:10:02.094Z,99994.06
2023-07-25T22:12:28.718Z,99976.97
2023-07-25T22:14:55.400Z,99952.69
2023-07-25T22:17:22.498Z,99963.63
2023-07-25T22:19:49.208Z,99965.63
2023-07-25T22:22:15.830Z,99967.66
2023-07-25T22:24:42.597Z,99963.34
2023-07-25T22:27:09.197Z,99969.81
2023-07-25T22:29:35.900Z,99975.41
2023-07-25T22:32:02.596Z,99985.59
2023-07-25T22:34:29.368Z,100003.84
2023-07-25T22:36:56.031Z,100012.91
2023-07-25T22:39:23.019Z,100017.34
2023-07-25T22:41:49.623Z,100020.22
2023-07-25T22:44:16.414Z,100036.59
2023-07-25T22:46:44.473Z,100035.88
2023-07-25T22:49:11.166Z,100051.41
2023-07-25T22:51:37.907Z,100047.94
2023-07-25T22:54:04.586Z,100050.97
2023-07-25T22:56:31.433Z,100052.25
2023-07-25T22:58:58.385Z,100059.00
2023-07-25T23:01:25.120Z,100069.06
2023-07-25T23:03:51.786Z,100079.97
2023-07-25T23:06:18.505Z,100085.56
2023-07-25T23:08:45.279Z,100091.88
2023-07-25T23:11:13.044Z,100087.44
2023-07-25T23:13:39.657Z,100092.88
2023-07-25T23:16:06.403Z,100100.22
2023-07-25T23:18:33.259Z,100103.81
2023-07-25T23:21:00.777Z,100106.69
2023-07-25T23:23:27.734Z,100113.84
2023-07-25T23:25:54.384Z,100128.50
2023-07-25T23:28:21.130Z,100137.69
2023-07-25T23:30:47.841Z,100159.50
2023-07-25T23:33:14.530Z,100177.75
2023-07-25T23:35:41.230Z,100192.25
2023-07-25T23:38:07.958Z,100197.72
2023-07-25T23:40:34.731Z,100187.81
2023-07-25T23:43:02.907Z,100186.19
2023-07-25T23:45:30.490Z,100174.69
2023-07-25T23:47:57.197Z,100169.50
2023-07-25T23:50:23.903Z,100169.06
2023-07-25T23:52:50.645Z,100172.06
2023-07-25T23:55:17.398Z,100173.06
2023-07-25T23:57:44.069Z,100163.16
